Time;durP1;ratioP1;P1;durP2;ratioP2;P2;SDS_P1;SDS_P2;PMS_P1;PMS_P2;Temp;Humidity;BMP_temperature;BMP_pressure;BME280_temperature;BME280_humidity;BME280_pressure;Samples;Min_cycle;Max_cycle;Signal;HPM_P1;HPM_P2
2023/01/18 00:00:16;;;;;;;1.65;1.30;;;17.00;33.00;;;;;;5071779;28;20214;-70
2023/01/18 00:02:46;;;;;;;1.52;1.20;;;16.90;33.10;;;;;;5073171;28;20225;-68
2023/01/18 00:05:13;;;;;;;2.30;1.13;;;17.00;33.10;;;;;;5074888;28;20585;-69
2023/01/18 00:07:40;;;;;;;2.45;1.33;;;17.00;33.10;;;;;;5074841;28;20190;-68
2023/01/18 00:10:08;;;;;;;1.67;1.23;;;16.90;33.20;;;;;;5075071;28;20226;-68
2023/01/18 00:12:35;;;;;;;1.45;1.10;;;16.90;33.30;;;;;;5075111;28;20191;-68
2023/01/18 00:15:02;;;;;;;1.45;1.13;;;16.90;33.20;;;;;;5074795;28;20613;-68
2023/01/18 00:17:29;;;;;;;1.27;1.10;;;16.90;33.10;;;;;;5074676;28;20187;-68
2023/01/18 00:19:58;;;;;;;1.05;1.00;;;16.90;33.20;;;;;;5074532;28;20272;-68
2023/01/18 00:22:25;;;;;;;1.20;1.10;;;16.90;33.20;;;;;;5074946;28;20191;-68
2023/01/18 00:24:52;;;;;;;1.90;1.10;;;16.90;33.20;;;;;;5074929;28;20218;-68
2023/01/18 00:27:20;;;;;;;1.58;1.10;;;16.80;33.10;;;;;;5074751;28;20237;-68
2023/01/18 00:29:47;;;;;;;1.55;1.00;;;16.80;33.10;;;;;;5074823;28;20219;-68
2023/01/18 00:32:15;;;;;;;2.22;1.00;;;16.90;32.90;;;;;;5074314;28;20195;-68
2023/01/18 00:34:42;;;;;;;1.45;1.33;;;16.90;33.30;;;;;;5074302;28;20221;-67
2023/01/18 00:37:11;;;;;;;2.17;1.10;;;16.80;33.00;;;;;;5074647;28;20187;-68
2023/01/18 00:39:39;;;;;;;1.13;1.02;;;16.80;33.10;;;;;;5074292;28;20231;-69
2023/01/18 00:44:51;;;;;;;1.30;1.20;;;16.80;33.10;;;;;;5074412;28;20743;-68
2023/01/18 00:47:18;;;;;;;1.67;1.08;;;16.80;33.30;;;;;;5074480;28;20195;-69
2023/01/18 00:49:45;;;;;;;1.98;1.05;;;16.80;33.10;;;;;;5074488;28;20273;-68
2023/01/18 00:52:13;;;;;;;1.42;0.95;;;16.80;33.00;;;;;;5074245;28;20591;-69
2023/01/18 00:54:40;;;;;;;1.67;1.13;;;16.80;33.00;;;;;;5074131;28;20230;-69
2023/01/18 00:57:07;;;;;;;2.53;0.95;;;16.80;33.00;;;;;;5074386;28;20241;-69
2023/01/18 00:59:34;;;;;;;1.58;0.90;;;16.80;32.90;;;;;;5073770;28;20235;-68
2023/01/18 01:02:01;;;;;;;1.85;1.10;;;16.80;33.10;;;;;;5073833;28;20688;-69
2023/01/18 01:07:14;;;;;;;2.05;1.10;;;16.70;33.00;;;;;;5073832;28;20726;-68
2023/01/18 01:09:43;;;;;;;1.73;1.10;;;16.70;33.00;;;;;;5074037;28;20251;-68
2023/01/18 01:26:05;;;;;;;2.17;1.05;;;16.70;32.90;;;;;;5073488;28;20210;-69
2023/01/18 01:28:32;;;;;;;1.17;1.08;;;16.70;32.70;;;;;;5073331;28;20198;-68
2023/01/18 01:31:00;;;;;;;1.17;1.08;;;16.70;32.80;;;;;;5073382;28;20277;-68
2023/01/18 01:33:27;;;;;;;1.60;1.10;;;16.70;32.90;;;;;;5073228;28;20193;-68
2023/01/18 01:35:58;;;;;;;0.95;0.80;;;16.70;32.80;;;;;;5073358;28;20218;-69
2023/01/18 01:38:27;;;;;;;1.77;1.08;;;16.70;32.60;;;;;;5073369;28;20183;-69
2023/01/18 01:40:58;;;;;;;1.58;0.88;;;16.70;32.80;;;;;;5073511;28;20272;-68
2023/01/18 01:43:44;;;;;;;1.33;1.00;;;16.70;32.70;;;;;;5073395;28;20601;-68
2023/01/18 01:46:29;;;;;;;2.97;1.00;;;16.70;32.70;;;;;;5073356;28;20358;-69
2023/01/18 01:49:04;;;;;;;2.05;1.10;;;16.70;32.80;;;;;;5072806;28;20652;-68
2023/01/18 01:51:34;;;;;;;1.40;0.93;;;16.70;32.80;;;;;;5072862;28;20699;-68
2023/01/18 01:54:06;;;;;;;1.30;1.20;;;16.60;32.70;;;;;;5072729;28;20609;-68
2023/01/18 01:56:34;;;;;;;1.98;1.00;;;16.70;32.80;;;;;;5073075;28;20609;-68
2023/01/18 01:59:02;;;;;;;1.35;0.90;;;16.70;32.50;;;;;;5072666;28;20260;-68
2023/01/18 02:01:30;;;;;;;1.67;1.10;;;16.60;32.80;;;;;;5073122;28;20183;-68
2023/01/18 02:04:00;;;;;;;1.30;0.90;;;16.60;32.60;;;;;;5072805;28;20234;-68
2023/01/18 02:06:32;;;;;;;0.90;0.80;;;16.60;32.60;;;;;;5072827;28;20641;-69
2023/01/18 02:09:03;;;;;;;1.60;1.40;;;16.60;32.80;;;;;;5072578;28;20194;-68
2023/01/18 02:11:30;;;;;;;1.75;1.20;;;16.60;32.70;;;;;;5072804;28;20191;-68
2023/01/18 02:14:01;;;;;;;1.67;0.90;;;16.60;32.60;;;;;;5072503;28;20248;-68
2023/01/18 02:16:41;;;;;;;2.47;1.20;;;16.60;32.60;;;;;;5072958;28;20279;-68
2023/01/18 02:19:20;;;;;;;1.33;1.23;;;16.60;32.60;;;;;;5072579;28;20268;-68
2023/01/18 02:21:52;;;;;;;1.55;0.85;;;16.60;32.80;;;;;;5072695;28;20240;-67
2023/01/18 02:24:53;;;;;;;1.42;0.90;;;16.60;32.70;;;;;;5072492;28;20223;-69
2023/01/18 02:27:24;;;;;;;1.52;1.00;;;16.60;32.80;;;;;;5072525;28;20186;-69
2023/01/18 02:30:14;;;;;;;1.52;1.00;;;16.60;32.80;;;;;;5072284;28;20646;-68
2023/01/18 02:33:05;;;;;;;1.85;1.20;;;16.60;32.90;;;;;;5072422;28;20233;-68
2023/01/18 02:35:42;;;;;;;1.52;1.20;;;16.60;32.80;;;;;;5072154;28;20565;-68
2023/01/18 02:38:13;;;;;;;1.23;1.00;;;16.60;32.90;;;;;;5072627;28;20205;-68
2023/01/18 02:40:56;;;;;;;1.63;1.15;;;16.50;32.70;;;;;;5072143;28;20276;-68
2023/01/18 02:49:09;;;;;;;1.73;0.80;;;16.50;32.80;;;;;;5035624;28;20610;-69
2023/01/18 02:51:37;;;;;;;1.35;1.00;;;16.50;33.00;;;;;;5072037;28;20244;-70
2023/01/18 02:54:08;;;;;;;1.10;1.00;;;16.50;32.70;;;;;;5071953;28;20187;-70
2023/01/18 02:56:39;;;;;;;1.92;1.08;;;16.50;32.70;;;;;;5071893;28;20604;-69
2023/01/18 02:59:11;;;;;;;1.40;1.27;;;16.50;32.80;;;;;;5072120;28;20232;-69
2023/01/18 03:01:43;;;;;;;1.10;1.00;;;16.50;32.70;;;;;;5072359;28;20199;-69
2023/01/18 03:04:16;;;;;;;1.30;1.10;;;16.50;32.80;;;;;;5072058;28;20195;-68
2023/01/18 03:06:47;;;;;;;1.35;1.08;;;16.50;32.90;;;;;;5070999;28;20228;-69
2023/01/18 03:09:17;;;;;;;1.77;1.00;;;16.50;32.80;;;;;;5071808;28;20220;-70
2023/01/18 03:11:52;;;;;;;1.17;1.08;;;16.50;33.10;;;;;;5072056;28;20244;-68
2023/01/18 03:14:30;;;;;;;1.60;1.00;;;16.50;33.10;;;;;;5071750;28;20210;-69
2023/01/18 03:17:07;;;;;;;1.30;1.00;;;16.50;33.10;;;;;;5072078;28;20556;-69
2023/01/18 03:25:21;;;;;;;1.85;1.20;;;16.50;33.20;;;;;;5071725;28;20329;-69
2023/01/18 03:33:43;;;;;;;1.65;1.13;;;16.40;33.30;;;;;;5071552;28;20309;-68
2023/01/18 03:36:16;;;;;;;2.13;1.30;;;16.40;33.10;;;;;;5071646;28;20224;-68
2023/01/18 03:38:46;;;;;;;2.00;1.40;;;16.40;33.20;;;;;;5074822;28;20236;-68
2023/01/18 03:41:16;;;;;;;1.40;1.10;;;16.40;33.10;;;;;;5075656;28;20218;-68
2023/01/18 03:43:44;;;;;;;1.70;1.10;;;16.40;33.00;;;;;;5074528;28;20264;-68
2023/01/18 03:46:14;;;;;;;3.55;1.20;;;16.40;33.00;;;;;;5075466;28;20226;-68
2023/01/18 03:48:42;;;;;;;2.60;1.00;;;16.40;33.00;;;;;;5075518;28;20187;-68
2023/01/18 03:51:18;;;;;;;1.10;1.00;;;16.40;33.00;;;;;;5075535;28;20223;-70
2023/01/18 03:53:54;;;;;;;1.08;0.90;;;16.40;33.20;;;;;;5074912;28;20681;-70
2023/01/18 03:56:26;;;;;;;1.67;1.08;;;16.40;33.10;;;;;;5075630;28;20218;-68
2023/01/18 03:58:56;;;;;;;1.25;0.90;;;16.40;33.10;;;;;;5075018;28;20187;-68
2023/01/18 04:01:24;;;;;;;2.00;1.20;;;16.40;33.10;;;;;;5075566;28;20223;-70
2023/01/18 04:03:53;;;;;;;1.52;0.95;;;16.40;33.20;;;;;;5075346;28;20221;-67
2023/01/18 04:06:22;;;;;;;2.40;1.20;;;16.40;33.10;;;;;;5075108;28;20215;-68
2023/01/18 04:08:49;;;;;;;2.58;1.20;;;16.40;33.20;;;;;;5075212;28;20186;-68
2023/01/18 04:11:16;;;;;;;1.33;1.00;;;16.40;32.90;;;;;;5074862;28;20781;-69
2023/01/18 04:13:43;;;;;;;1.65;1.17;;;16.40;33.10;;;;;;5072789;28;20237;-68
2023/01/18 04:16:11;;;;;;;2.25;1.38;;;16.40;33.30;;;;;;5074838;28;20215;-68
2023/01/18 04:18:38;;;;;;;2.08;1.30;;;16.40;33.10;;;;;;5074879;28;20236;-69
2023/01/18 04:21:07;;;;;;;1.20;1.10;;;16.40;33.30;;;;;;5074760;28;20233;-70
2023/01/18 04:23:34;;;;;;;1.02;1.00;;;16.40;33.30;;;;;;5074970;28;20191;-68
2023/01/18 04:26:02;;;;;;;1.75;1.20;;;16.40;33.10;;;;;;5074713;28;20223;-69
2023/01/18 04:28:29;;;;;;;2.13;1.10;;;16.30;33.30;;;;;;5074947;28;20187;-69
2023/01/18 04:30:57;;;;;;;1.27;1.00;;;16.40;33.30;;;;;;5075000;28;20688;-68
2023/01/18 04:33:25;;;;;;;2.90;1.10;;;16.40;33.10;;;;;;5074821;28;20187;-69
2023/01/18 04:35:53;;;;;;;1.20;1.00;;;16.30;33.30;;;;;;5074698;28;20218;-69
2023/01/18 04:38:22;;;;;;;4.07;1.23;;;16.30;33.30;;;;;;5074639;28;20195;-69
2023/01/18 04:40:49;;;;;;;1.40;1.17;;;16.30;33.30;;;;;;5074567;28;20234;-68
2023/01/18 04:43:17;;;;;;;1.83;1.20;;;16.30;33.30;;;;;;5074657;28;20193;-69
2023/01/18 04:45:53;;;;;;;1.63;1.30;;;16.30;33.30;;;;;;5074279;28;20272;-69
2023/01/18 04:48:20;;;;;;;1.20;1.10;;;16.30;33.20;;;;;;5074154;28;20201;-69
2023/01/18 04:50:47;;;;;;;1.73;1.23;;;16.30;33.30;;;;;;5074485;28;20219;-69
2023/01/18 04:53:14;;;;;;;1.77;1.33;;;16.30;33.30;;;;;;5074179;28;20657;-68
2023/01/18 04:55:43;;;;;;;1.63;0.88;;;16.30;33.30;;;;;;5074035;28;20284;-68
2023/01/18 04:58:10;;;;;;;1.17;1.08;;;16.30;33.30;;;;;;5074195;28;20248;-68
2023/01/18 05:00:38;;;;;;;2.53;1.17;;;16.30;33.30;;;;;;5074325;28;20230;-69
2023/01/18 05:03:05;;;;;;;1.60;1.10;;;16.30;33.30;;;;;;5074218;28;20213;-68
2023/01/18 05:05:33;;;;;;;2.17;1.20;;;16.30;33.30;;;;;;5074270;28;20210;-68
2023/01/18 05:08:00;;;;;;;3.13;1.23;;;16.30;33.30;;;;;;5073794;28;20653;-69
2023/01/18 05:10:27;;;;;;;1.65;1.20;;;16.30;33.30;;;;;;5074079;28;20222;-69
2023/01/18 05:12:56;;;;;;;1.75;1.10;;;16.30;33.30;;;;;;5073685;28;20244;-69
2023/01/18 05:15:23;;;;;;;1.83;1.00;;;16.30;33.30;;;;;;5073945;28;20215;-69
2023/01/18 05:17:50;;;;;;;2.97;1.10;;;16.20;33.20;;;;;;5073983;28;20610;-70
2023/01/18 05:20:18;;;;;;;2.83;1.00;;;16.30;33.30;;;;;;5073475;28;20684;-69
2023/01/18 05:22:45;;;;;;;1.75;1.13;;;16.30;33.30;;;;;;5073806;28;20191;-70
2023/01/18 05:25:12;;;;;;;2.28;1.20;;;16.20;33.30;;;;;;5073832;28;20222;-68
2023/01/18 05:27:39;;;;;;;1.90;1.10;;;16.20;33.30;;;;;;5073686;28;20244;-69
2023/01/18 05:30:10;;;;;;;1.70;1.23;;;16.20;33.90;;;;;;5073645;28;20214;-69
2023/01/18 05:32:38;;;;;;;2.50;1.05;;;16.20;33.30;;;;;;5073632;28;20244;-69
2023/01/18 05:35:06;;;;;;;1.15;0.85;;;16.20;33.30;;;;;;5072070;28;20280;-70
2023/01/18 05:37:33;;;;;;;1.50;0.90;;;16.20;33.30;;;;;;5073503;28;20191;-69
2023/01/18 05:40:00;;;;;;;1.48;0.85;;;16.20;33.30;;;;;;5073318;28;20234;-68
2023/01/18 05:42:27;;;;;;;1.10;0.90;;;16.20;33.30;;;;;;5073126;28;20661;-69
2023/01/18 05:44:54;;;;;;;1.50;0.90;;;16.20;33.30;;;;;;5073349;28;20264;-68
2023/01/18 05:47:22;;;;;;;1.40;0.88;;;16.20;33.30;;;;;;5072854;28;20746;-68
2023/01/18 05:49:50;;;;;;;1.08;1.00;;;16.30;33.30;;;;;;5072992;28;20219;-68
2023/01/18 05:52:17;;;;;;;2.35;0.82;;;16.30;33.30;;;;;;5073144;28;20194;-68
2023/01/18 05:54:44;;;;;;;2.00;1.20;;;16.30;33.30;;;;;;5072846;28;20311;-70
2023/01/18 05:57:11;;;;;;;1.25;1.05;;;16.30;33.40;;;;;;5073058;28;20195;-68
2023/01/18 05:59:38;;;;;;;1.77;1.08;;;16.40;33.40;;;;;;5072311;28;20195;-69
2023/01/18 06:02:05;;;;;;;1.50;1.15;;;16.40;33.40;;;;;;5072921;28;20191;-69
2023/01/18 06:04:34;;;;;;;2.10;1.02;;;16.40;33.40;;;;;;5072640;28;20585;-68
2023/01/18 06:07:01;;;;;;;1.45;0.90;;;16.40;33.50;;;;;;5072917;28;20187;-69
2023/01/18 06:09:29;;;;;;;1.23;1.00;;;16.50;33.60;;;;;;5072818;28;20545;-69
2023/01/18 06:11:56;;;;;;;1.17;0.98;;;16.50;34.30;;;;;;5072854;28;20201;-69
2023/01/18 06:14:23;;;;;;;1.75;0.93;;;16.60;33.80;;;;;;5072773;28;20241;-69
2023/01/18 06:16:50;;;;;;;1.15;0.90;;;16.60;33.90;;;;;;5072747;28;20241;-68
2023/01/18 06:19:17;;;;;;;1.85;1.10;;;16.60;33.80;;;;;;5072745;28;20191;-69
2023/01/18 06:21:46;;;;;;;1.08;0.90;;;16.70;33.90;;;;;;5072846;28;20239;-70
2023/01/18 06:24:13;;;;;;;1.63;1.10;;;16.70;34.00;;;;;;5072588;28;20273;-69
2023/01/18 06:26:40;;;;;;;1.58;1.15;;;16.70;34.00;;;;;;5072885;28;20223;-69
2023/01/18 06:29:08;;;;;;;2.63;1.08;;;16.70;34.00;;;;;;5072283;28;20212;-69
2023/01/18 06:31:35;;;;;;;1.98;0.90;;;16.70;34.00;;;;;;5072793;28;20264;-69
2023/01/18 06:34:08;;;;;;;1.42;1.10;;;16.80;34.10;;;;;;5072175;28;20236;-69
2023/01/18 06:36:35;;;;;;;1.42;1.05;;;16.80;34.00;;;;;;5072419;28;20222;-68
2023/01/18 06:39:04;;;;;;;1.25;1.00;;;16.80;34.00;;;;;;5072175;28;20232;-69
2023/01/18 06:41:31;;;;;;;1.10;1.00;;;16.90;34.00;;;;;;5072249;28;20252;-69
2023/01/18 06:43:59;;;;;;;1.33;1.13;;;16.90;34.00;;;;;;5072661;28;20248;-68
2023/01/18 06:46:26;;;;;;;1.25;1.00;;;16.90;34.00;;;;;;5072408;28;20275;-68
2023/01/18 06:48:53;;;;;;;1.98;1.08;;;16.90;33.90;;;;;;5072338;28;20590;-68
2023/01/18 06:51:20;;;;;;;0.95;0.85;;;17.00;34.00;;;;;;5072338;28;20218;-69
2023/01/18 06:53:48;;;;;;;1.20;1.10;;;17.00;34.00;;;;;;5072175;28;20220;-68
2023/01/18 06:56:17;;;;;;;1.77;1.15;;;17.00;34.00;;;;;;5071983;28;20566;-69
2023/01/18 06:58:44;;;;;;;2.38;1.10;;;17.10;34.10;;;;;;5072339;28;20198;-69
2023/01/18 07:01:11;;;;;;;1.58;1.05;;;17.10;34.10;;;;;;5071875;28;20242;-69
2023/01/18 07:03:39;;;;;;;3.45;1.10;;;17.10;34.10;;;;;;5073215;28;20244;-70
2023/01/18 07:06:06;;;;;;;1.90;1.10;;;17.10;34.10;;;;;;5072226;28;20280;-68
2023/01/18 07:08:34;;;;;;;1.60;1.20;;;17.20;34.10;;;;;;5072218;28;20191;-70
2023/01/18 07:11:05;;;;;;;2.22;0.93;;;17.20;34.10;;;;;;5072721;28;20592;-70
2023/01/18 07:13:33;;;;;;;1.67;1.00;;;17.20;34.10;;;;;;5075943;28;20702;-69
2023/01/18 07:16:02;;;;;;;1.27;1.10;;;17.20;34.10;;;;;;5076260;28;20707;-70
2023/01/18 07:18:30;;;;;;;1.83;1.20;;;17.20;34.10;;;;;;5076185;28;20240;-70
2023/01/18 07:20:59;;;;;;;1.30;1.20;;;17.20;34.10;;;;;;5076162;28;20288;-69
2023/01/18 07:23:27;;;;;;;1.30;1.10;;;17.30;34.20;;;;;;5076096;28;20186;-69
2023/01/18 07:26:01;;;;;;;1.70;1.02;;;17.30;34.20;;;;;;5075937;28;20276;-68
2023/01/18 07:28:29;;;;;;;1.48;1.13;;;17.30;34.20;;;;;;5075753;28;20272;-69
2023/01/18 07:30:58;;;;;;;1.35;1.20;;;17.30;34.20;;;;;;5075797;28;20814;-68
2023/01/18 07:33:25;;;;;;;1.98;1.23;;;17.30;34.20;;;;;;5075615;28;20652;-69
2023/01/18 07:35:53;;;;;;;1.92;1.02;;;17.40;34.30;;;;;;5075742;28;20222;-69
2023/01/18 07:38:21;;;;;;;3.05;1.65;;;17.40;34.30;;;;;;5075793;28;20187;-69
2023/01/18 07:40:48;;;;;;;1.63;1.00;;;17.40;34.30;;;;;;5074714;28;20226;-69
2023/01/18 07:43:16;;;;;;;3.70;1.38;;;17.40;34.30;;;;;;5075704;28;20198;-69
2023/01/18 07:45:52;;;;;;;1.30;1.20;;;17.40;34.30;;;;;;5068672;28;20679;-71
2023/01/18 07:48:22;;;;;;;1.52;1.20;;;17.40;34.30;;;;;;5067439;28;20619;-70
2023/01/18 07:50:53;;;;;;;1.95;1.08;;;17.40;34.30;;;;;;5066487;28;20668;-71
2023/01/18 07:53:21;;;;;;;2.28;1.40;;;17.50;34.30;;;;;;5062051;28;20199;-70
2023/01/18 07:55:48;;;;;;;1.85;1.00;;;17.40;34.30;;;;;;5065900;28;20246;-70
2023/01/18 07:58:16;;;;;;;2.10;1.17;;;17.40;34.30;;;;;;5073438;28;20195;-71
2023/01/18 08:00:43;;;;;;;1.50;1.00;;;17.40;34.30;;;;;;5066451;28;20238;-71
2023/01/18 08:03:13;;;;;;;2.53;0.90;;;17.40;34.30;;;;;;5064524;28;20237;-71
2023/01/18 08:05:43;;;;;;;1.40;1.08;;;17.30;34.20;;;;;;5058475;28;20273;-72
2023/01/18 08:08:12;;;;;;;2.33;1.10;;;17.40;34.90;;;;;;5065721;28;20746;-71
2023/01/18 08:10:39;;;;;;;2.22;1.08;;;17.40;34.30;;;;;;5073775;28;20218;-71
2023/01/18 08:13:09;;;;;;;2.03;1.05;;;17.40;34.30;;;;;;5073527;28;20187;-71
2023/01/18 08:15:37;;;;;;;1.65;1.10;;;17.40;34.50;;;;;;5074004;28;20272;-71
2023/01/18 08:18:05;;;;;;;2.70;1.60;;;17.40;34.50;;;;;;5074046;28;20191;-71
2023/01/18 08:20:33;;;;;;;1.55;1.27;;;17.40;34.50;;;;;;5073762;28;20678;-72
2023/01/18 08:23:02;;;;;;;2.63;1.30;;;17.40;34.60;;;;;;5072717;28;20198;-71
2023/01/18 08:25:32;;;;;;;2.85;1.45;;;17.40;34.70;;;;;;5073814;28;20218;-71
2023/01/18 08:28:01;;;;;;;1.45;1.08;;;17.40;34.70;;;;;;5073873;28;20229;-71
2023/01/18 08:30:31;;;;;;;1.95;1.10;;;17.40;34.70;;;;;;5073674;28;20741;-72
2023/01/18 08:33:00;;;;;;;2.33;1.00;;;17.40;34.70;;;;;;5073353;28;20191;-71
2023/01/18 08:35:30;;;;;;;1.35;1.10;;;17.50;34.80;;;;;;5069572;28;20291;-71
2023/01/18 08:37:59;;;;;;;2.95;1.27;;;17.50;34.80;;;;;;5065613;28;20195;-71
2023/01/18 08:40:29;;;;;;;2.45;1.40;;;17.50;34.80;;;;;;5073276;28;20280;-71
2023/01/18 08:42:57;;;;;;;2.10;1.05;;;17.50;34.90;;;;;;5064728;28;20199;-71
2023/01/18 08:45:26;;;;;;;1.50;1.00;;;17.50;34.80;;;;;;5058608;28;20319;-71
2023/01/18 08:47:57;;;;;;;1.88;1.25;;;17.50;34.90;;;;;;5067579;28;20730;-71
2023/01/18 08:50:24;;;;;;;2.67;1.08;;;17.60;35.00;;;;;;5071836;28;20214;-71
2023/01/18 08:52:52;;;;;;;3.58;1.02;;;17.60;35.00;;;;;;5071567;28;20691;-71
2023/01/18 08:55:20;;;;;;;2.63;1.40;;;17.60;35.00;;;;;;5072881;28;20317;-71
2023/01/18 08:57:49;;;;;;;5.35;1.10;;;17.60;35.00;;;;;;5072550;28;20195;-71
2023/01/18 09:00:18;;;;;;;2.50;1.50;;;17.60;35.00;;;;;;5072658;28;20223;-71
2023/01/18 09:02:48;;;;;;;3.58;1.40;;;17.60;35.00;;;;;;5072678;28;20695;-71
2023/01/18 09:05:15;;;;;;;3.45;1.20;;;17.60;35.00;;;;;;5072814;28;20559;-70
2023/01/18 09:07:43;;;;;;;2.55;1.30;;;17.70;35.00;;;;;;5072594;28;20240;-71
2023/01/18 09:10:11;;;;;;;4.13;1.38;;;17.70;35.10;;;;;;5071358;28;20214;-71
2023/01/18 09:12:39;;;;;;;2.10;1.25;;;17.70;35.10;;;;;;5072499;28;20316;-72
2023/01/18 09:15:09;;;;;;;2.53;1.30;;;17.70;35.00;;;;;;5072613;28;20634;-73
2023/01/18 09:17:36;;;;;;;1.45;1.20;;;17.70;35.10;;;;;;5072749;28;20191;-72
2023/01/18 09:20:08;;;;;;;2.08;1.02;;;17.70;35.10;;;;;;5072237;28;20211;-71
2023/01/18 09:22:35;;;;;;;2.38;1.20;;;17.70;35.10;;;;;;5071709;28;20272;-71
2023/01/18 09:25:03;;;;;;;2.13;1.35;;;17.70;35.10;;;;;;5071986;28;20624;-71
2023/01/18 09:27:30;;;;;;;3.78;1.55;;;17.70;35.10;;;;;;5072404;28;20798;-71
2023/01/18 09:29:57;;;;;;;2.72;1.38;;;17.70;35.20;;;;;;5072348;28;20530;-71
2023/01/18 09:32:26;;;;;;;2.60;1.50;;;17.70;35.20;;;;;;5072362;28;20194;-72
2023/01/18 09:34:53;;;;;;;3.97;1.27;;;17.70;35.20;;;;;;5071095;28;20282;-71
2023/01/18 09:37:21;;;;;;;1.85;1.20;;;17.70;35.30;;;;;;5071911;28;20195;-71
2023/01/18 09:39:48;;;;;;;2.78;1.23;;;17.70;35.20;;;;;;5073044;28;20657;-72
2023/01/18 09:42:20;;;;;;;1.63;1.20;;;17.70;35.20;;;;;;5072086;28;20218;-71
2023/01/18 09:44:52;;;;;;;1.40;0.98;;;17.80;35.40;;;;;;5071582;28;20281;-71
2023/01/18 09:47:23;;;;;;;3.75;1.30;;;17.80;35.40;;;;;;5071905;28;20190;-71
2023/01/18 09:49:56;;;;;;;3.42;1.20;;;17.80;35.40;;;;;;5071701;28;20191;-72
2023/01/18 09:52:33;;;;;;;3.83;1.30;;;17.80;35.40;;;;;;5071113;28;20701;-70
2023/01/18 09:55:09;;;;;;;4.13;1.40;;;17.90;35.50;;;;;;5070325;28;20230;-71
2023/01/18 09:57:46;;;;;;;1.60;1.10;;;17.90;35.50;;;;;;5071617;28;20228;-72
2023/01/18 10:00:22;;;;;;;1.60;1.20;;;17.90;35.40;;;;;;5071476;28;20218;-72
2023/01/18 10:02:54;;;;;;;2.35;1.30;;;17.90;35.40;;;;;;5071792;28;20287;-71
2023/01/18 10:05:26;;;;;;;4.00;1.33;;;17.90;35.40;;;;;;5063426;28;20932;-70
2023/01/18 10:08:06;;;;;;;3.85;1.20;;;18.00;35.40;;;;;;5052165;28;20253;-72
2023/01/18 10:10:42;;;;;;;5.00;1.20;;;18.00;35.40;;;;;;5051856;28;20306;-71
2023/01/18 10:13:42;;;;;;;2.10;1.40;;;18.00;35.40;;;;;;5071670;28;20218;-72
2023/01/18 10:16:14;;;;;;;2.95;1.23;;;18.00;35.40;;;;;;5071051;28;20226;-74
2023/01/18 10:18:45;;;;;;;3.00;1.23;;;18.00;35.40;;;;;;5070854;28;20218;-73
2023/01/18 10:21:24;;;;;;;3.30;1.10;;;18.00;35.40;;;;;;5070896;28;20311;-72
2023/01/18 10:24:05;;;;;;;2.83;1.40;;;18.00;35.50;;;;;;5071071;28;20278;-72
2023/01/18 10:26:35;;;;;;;3.13;1.10;;;18.00;35.50;;;;;;5069856;28;20218;-70
2023/01/18 10:29:07;;;;;;;1.40;1.17;;;18.10;35.60;;;;;;5060918;28;20187;-72
2023/01/18 10:31:45;;;;;;;3.20;1.30;;;18.10;35.50;;;;;;5060827;28;20223;-72
2023/01/18 10:34:19;;;;;;;1.52;1.10;;;18.10;35.50;;;;;;5050950;28;20310;-74
2023/01/18 10:36:53;;;;;;;2.65;1.40;;;18.10;35.40;;;;;;5051151;28;20220;-75
2023/01/18 10:39:28;;;;;;;1.40;1.10;;;18.10;35.50;;;;;;5051041;28;20188;-76
2023/01/18 10:42:00;;;;;;;1.88;1.10;;;18.10;35.40;;;;;;5057348;28;20256;-76
2023/01/18 10:44:28;;;;;;;2.25;1.10;;;18.10;35.40;;;;;;5070922;28;20183;-77
2023/01/18 10:46:57;;;;;;;2.17;1.23;;;18.10;35.40;;;;;;5070201;28;20219;-76
2023/01/18 10:49:35;;;;;;;1.70;1.15;;;18.10;35.50;;;;;;5070563;28;20210;-76
2023/01/18 10:52:34;;;;;;;1.65;1.08;;;18.10;35.40;;;;;;5070724;28;20214;-78
2023/01/18 10:55:06;;;;;;;2.25;1.30;;;18.20;35.60;;;;;;5070634;28;20222;-77
2023/01/18 10:57:41;;;;;;;3.65;1.38;;;18.20;35.60;;;;;;5070811;28;20641;-77
2023/01/18 11:00:20;;;;;;;3.63;1.25;;;18.20;35.50;;;;;;5070890;28;20187;-77
2023/01/18 11:02:49;;;;;;;2.33;1.30;;;18.20;35.50;;;;;;5070624;28;20771;-79
2023/01/18 11:05:24;;;;;;;2.35;1.45;;;18.20;35.50;;;;;;5070377;28;20206;-76
2023/01/18 11:08:20;;;;;;;2.92;1.10;;;18.20;35.60;;;;;;5071161;28;20198;-77
2023/01/18 11:10:57;;;;;;;3.20;1.58;;;18.20;35.60;;;;;;5070229;28;20575;-76
2023/01/18 11:13:26;;;;;;;3.72;1.20;;;18.20;35.50;;;;;;5071112;28;20194;-76
2023/01/18 11:16:12;;;;;;;2.33;1.20;;;18.20;35.60;;;;;;5070810;28;20218;-75
2023/01/18 11:18:54;;;;;;;3.08;1.52;;;18.20;35.60;;;;;;5069002;28;20911;-78
2023/01/18 11:21:22;;;;;;;1.70;1.27;;;18.20;35.60;;;;;;5066011;28;20210;-76
2023/01/18 11:23:54;;;;;;;4.00;1.33;;;18.20;35.60;;;;;;5058406;28;20244;-77
2023/01/18 11:26:24;;;;;;;1.85;1.20;;;18.20;35.60;;;;;;5070836;28;20218;-76
2023/01/18 11:28:58;;;;;;;3.92;1.40;;;18.20;35.60;;;;;;5070240;28;20249;-77
2023/01/18 11:31:27;;;;;;;1.75;1.10;;;18.20;35.60;;;;;;5069293;28;20621;-78
2023/01/18 11:33:58;;;;;;;2.47;1.38;;;18.20;35.60;;;;;;5070658;28;20832;-77
2023/01/18 11:36:36;;;;;;;2.38;1.48;;;18.20;35.60;;;;;;5069160;28;20777;-73
2023/01/18 11:39:29;;;;;;;1.75;1.23;;;18.30;35.60;;;;;;5062830;28;20196;-77
2023/01/18 11:42:21;;;;;;;2.65;1.25;;;18.30;35.60;;;;;;5067711;28;20258;-76
2023/01/18 11:44:59;;;;;;;5.07;1.17;;;18.30;35.60;;;;;;5070767;28;20690;-76
2023/01/18 11:47:44;;;;;;;2.97;1.40;;;18.30;35.60;;;;;;5068362;28;20671;-78
2023/01/18 11:50:23;;;;;;;2.22;1.00;;;18.30;35.60;;;;;;5066690;28;20260;-75
2023/01/18 11:52:55;;;;;;;1.33;1.20;;;18.30;35.60;;;;;;5065302;28;20221;-74
2023/01/18 11:55:31;;;;;;;2.53;1.20;;;18.30;35.60;;;;;;5067679;28;20227;-76
2023/01/18 11:57:58;;;;;;;2.25;1.10;;;18.30;35.60;;;;;;5065183;28;20283;-77
2023/01/18 12:00:28;;;;;;;2.45;1.40;;;18.30;35.60;;;;;;5050778;28;20203;-77
2023/01/18 12:03:14;;;;;;;1.80;1.33;;;18.30;35.60;;;;;;5062512;28;20210;-75
2023/01/18 12:05:45;;;;;;;1.40;1.08;;;18.30;35.50;;;;;;5069519;28;20215;-77
2023/01/18 12:08:45;;;;;;;2.58;1.60;;;18.40;35.60;;;;;;5070669;28;20292;-77
2023/01/18 12:11:42;;;;;;;3.78;1.20;;;18.40;35.40;;;;;;5053173;28;20332;-75
2023/01/18 12:14:22;;;;;;;2.15;1.40;;;18.40;35.10;;;;;;5070642;28;20633;-75
2023/01/18 12:17:12;;;;;;;2.80;1.20;;;18.50;35.20;;;;;;5065458;28;20237;-72
2023/01/18 12:19:50;;;;;;;3.13;1.20;;;18.50;35.20;;;;;;5069824;28;20256;-70
2023/01/18 12:22:36;;;;;;;3.67;1.20;;;18.50;35.20;;;;;;5075829;27;20284;-71
2023/01/18 12:25:18;;;;;;;2.13;1.10;;;18.50;35.20;;;;;;5071055;28;20261;-72
2023/01/18 12:27:54;;;;;;;6.22;1.35;;;18.50;35.20;;;;;;5070147;28;20237;-71
2023/01/18 12:30:38;;;;;;;3.60;1.30;;;18.50;35.20;;;;;;5069611;28;20194;-70
2023/01/18 12:33:17;;;;;;;2.88;1.30;;;18.50;35.20;;;;;;5071392;28;20194;-70
2023/01/18 12:36:17;;;;;;;2.33;1.02;;;18.50;35.20;;;;;;5070340;28;20657;-71
2023/01/18 12:38:51;;;;;;;6.68;1.45;;;18.50;35.20;;;;;;5063547;28;20212;-67
2023/01/18 12:41:36;;;;;;;3.58;0.93;;;18.50;36.30;;;;;;5070629;28;20257;-72
2023/01/18 12:44:24;;;;;;;3.95;1.30;;;18.60;36.50;;;;;;5058776;28;20633;-71
2023/01/18 12:47:09;;;;;;;6.63;1.17;;;18.50;36.30;;;;;;5067441;28;20716;-72
2023/01/18 12:49:42;;;;;;;2.22;0.98;;;18.50;36.40;;;;;;5069712;28;20202;-73
2023/01/18 12:52:13;;;;;;;2.13;1.10;;;18.50;36.30;;;;;;5050615;28;20223;-71
2023/01/18 12:54:45;;;;;;;5.38;1.23;;;18.50;36.30;;;;;;5058884;28;20234;-71
2023/01/18 12:57:15;;;;;;;6.38;1.55;;;18.50;36.30;;;;;;5064347;28;20191;-71
2023/01/18 12:59:51;;;;;;;3.28;1.27;;;18.50;36.30;;;;;;5067363;28;20215;-71
2023/01/18 13:02:31;;;;;;;6.00;1.27;;;18.40;36.30;;;;;;5065677;28;20210;-71
2023/01/18 13:05:06;;;;;;;2.15;1.20;;;18.40;36.40;;;;;;5046614;28;20226;-71
2023/01/18 13:07:39;;;;;;;7.40;1.40;;;18.40;36.40;;;;;;5060095;28;20286;-72
2023/01/18 13:10:13;;;;;;;3.75;1.10;;;18.40;36.40;;;;;;5059652;28;20215;-70
2023/01/18 13:12:45;;;;;;;3.00;1.25;;;18.30;36.40;;;;;;5063632;28;20202;-72
2023/01/18 13:15:27;;;;;;;5.80;1.23;;;18.40;36.40;;;;;;5063711;28;20221;-72
2023/01/18 13:18:06;;;;;;;2.80;1.33;;;18.40;36.50;;;;;;5067806;28;20225;-73
2023/01/18 13:20:49;;;;;;;3.33;1.20;;;18.30;36.40;;;;;;5060316;28;20226;-74
2023/01/18 13:23:28;;;;;;;5.18;1.38;;;18.40;36.60;;;;;;5059149;28;20259;-75
2023/01/18 13:26:03;;;;;;;2.70;1.00;;;18.40;36.60;;;;;;5064392;28;20719;-74
2023/01/18 13:28:32;;;;;;;2.95;1.55;;;18.50;36.50;;;;;;5059562;28;20209;-76
2023/01/18 13:31:03;;;;;;;5.38;1.30;;;18.50;36.30;;;;;;5064489;28;20860;-75
2023/01/18 13:33:40;;;;;;;3.10;1.30;;;18.60;36.30;;;;;;5060357;28;20248;-74
2023/01/18 13:36:10;;;;;;;2.17;1.25;;;18.60;36.20;;;;;;5061144;28;20983;-72
2023/01/18 13:38:39;;;;;;;2.53;1.20;;;18.60;36.20;;;;;;5061828;28;20291;-75
2023/01/18 13:41:09;;;;;;;3.85;1.60;;;18.70;36.30;;;;;;5061967;28;20226;-75
2023/01/18 13:44:01;;;;;;;3.13;1.35;;;18.60;36.20;;;;;;5064812;28;20306;-74
2023/01/18 13:46:30;;;;;;;4.13;1.13;;;18.70;36.30;;;;;;5064901;28;20298;-75